Time;durP1;ratioP1;P1;durP2;ratioP2;P2;SDS_P1;SDS_P2;PMS_P1;PMS_P2;Temp;Humidity;BMP_temperature;BMP_pressure;BME280_temperature;BME280_humidity;BME280_pressure;Samples;Min_cycle;Max_cycle;Signal;HPM_P1;HPM_P2
2023/10/18 00:00:34;;;;;;;17.10;7.67;;;3.40;99.90;;;;;;5017769;28;20430;-61
2023/10/18 00:03:01;;;;;;;10.00;5.47;;;3.40;99.90;;;;;;5021696;28;20213;-61
2023/10/18 00:05:28;;;;;;;12.70;7.30;;;3.40;99.90;;;;;;5023227;28;20190;-61
2023/10/18 00:07:57;;;;;;;12.63;7.20;;;3.40;99.90;;;;;;5021280;28;21004;-61
2023/10/18 00:10:24;;;;;;;20.47;7.57;;;3.40;99.90;;;;;;5019904;28;20436;-61
2023/10/18 00:12:52;;;;;;;15.00;7.67;;;3.30;99.90;;;;;;5017881;28;20563;-61
2023/10/18 00:15:18;;;;;;;15.93;7.80;;;3.30;99.90;;;;;;5020529;28;20440;-61
2023/10/18 00:17:44;;;;;;;12.70;7.80;;;3.30;99.90;;;;;;5022824;28;20465;-61
2023/10/18 00:20:13;;;;;;;13.40;6.80;;;3.30;99.90;;;;;;5018599;28;20523;-61
2023/10/18 00:22:43;;;;;;;13.87;6.03;;;3.30;99.90;;;;;;5019350;28;20182;-61
2023/10/18 00:25:10;;;;;;;14.47;6.80;;;3.30;99.90;;;;;;5022721;28;20568;-61
2023/10/18 00:27:41;;;;;;;15.30;7.33;;;3.30;99.90;;;;;;5019913;28;20632;-61
2023/10/18 00:30:07;;;;;;;16.20;7.40;;;3.30;99.90;;;;;;5022277;28;21546;-61
2023/10/18 00:32:34;;;;;;;15.10;6.93;;;3.30;99.90;;;;;;5020313;28;20425;-61
2023/10/18 00:35:00;;;;;;;14.00;7.30;;;3.30;99.90;;;;;;5020618;28;20515;-61
2023/10/18 00:37:25;;;;;;;15.50;6.80;;;3.30;99.90;;;;;;5018296;28;20541;-61
2023/10/18 00:39:52;;;;;;;21.40;8.17;;;3.20;99.90;;;;;;5022744;28;20214;-61
2023/10/18 00:42:25;;;;;;;18.03;7.70;;;3.20;99.90;;;;;;5020224;28;20187;-61
2023/10/18 00:44:55;;;;;;;14.73;7.43;;;3.20;99.90;;;;;;5022083;28;20493;-61
2023/10/18 00:47:24;;;;;;;12.20;6.60;;;3.30;99.90;;;;;;5017947;28;20427;-61
2023/10/18 00:49:52;;;;;;;16.37;7.73;;;3.20;99.90;;;;;;5020605;28;20456;-61
2023/10/18 00:52:24;;;;;;;13.60;6.43;;;3.20;99.90;;;;;;5017081;28;20476;-61
2023/10/18 00:54:50;;;;;;;16.27;7.70;;;;;;;;;;5022504;28;21831;-61
2023/10/18 00:57:20;;;;;;;12.60;6.47;;;;;;;;;;5020136;28;20446;-61
2023/10/18 00:59:46;;;;;;;11.93;6.93;;;3.20;99.90;;;;;;5018890;28;20536;-61
2023/10/18 01:02:15;;;;;;;11.90;6.50;;;3.10;99.90;;;;;;5015602;28;21087;-61
2023/10/18 01:04:42;;;;;;;14.90;6.97;;;;;;;;;;5022896;28;20563;-61
2023/10/18 01:07:15;;;;;;;12.20;6.33;;;;;;;;;;5021445;28;20429;-61
2023/10/18 01:09:48;;;;;;;20.30;7.00;;;;;;;;;;5018558;28;20457;-61
2023/10/18 01:12:15;;;;;;;14.17;6.40;;;;;;;;;;5018597;28;20413;-61
2023/10/18 01:14:41;;;;;;;9.23;6.00;;;;;;;;;;5019079;28;20434;-61
2023/10/18 01:17:08;;;;;;;13.27;7.33;;;;;;;;;;5020070;28;20425;-61
2023/10/18 01:19:35;;;;;;;13.20;6.87;;;;;;;;;;5021614;28;20474;-61
2023/10/18 01:22:03;;;;;;;13.40;6.67;;;3.30;99.90;;;;;;5019263;28;21316;-61
2023/10/18 01:24:35;;;;;;;16.10;7.17;;;;;;;;;;5020670;28;21214;-61
2023/10/18 01:27:03;;;;;;;12.37;6.63;;;3.30;99.90;;;;;;5017751;28;20426;-61
2023/10/18 01:29:29;;;;;;;11.13;6.03;;;3.10;99.90;;;;;;5020432;28;20516;-61
2023/10/18 01:31:55;;;;;;;10.97;6.47;;;;;;;;;;5016765;28;20497;-61
2023/10/18 01:34:21;;;;;;;12.27;6.73;;;3.10;99.90;;;;;;5021007;28;21621;-61
2023/10/18 01:36:48;;;;;;;11.20;6.27;;;;;;;;;;5018758;28;20439;-61
2023/10/18 01:39:21;;;;;;;8.10;5.27;;;;;;;;;;5015895;28;20194;-61
2023/10/18 01:41:50;;;;;;;15.53;7.07;;;;;;;;;;5018283;28;20433;-61
2023/10/18 01:44:33;;;;;;;13.13;7.03;;;;;;;;;;5020558;28;20583;-61
2023/10/18 01:47:20;;;;;;;14.73;6.80;;;3.10;99.90;;;;;;5018628;28;20465;-61
2023/10/18 01:49:50;;;;;;;12.53;7.13;;;;;;;;;;5020500;28;20421;-61
2023/10/18 01:52:19;;;;;;;22.20;6.83;;;;;;;;;;5016623;28;20433;-61
2023/10/18 01:54:46;;;;;;;13.87;6.17;;;;;;;;;;5022311;28;20534;-61
2023/10/18 01:57:12;;;;;;;12.77;7.40;;;3.10;99.90;;;;;;5019786;28;20495;-61
2023/10/18 01:59:39;;;;;;;18.70;7.50;;;;;;;;;;5019741;28;21143;-61
2023/10/18 02:02:11;;;;;;;15.27;7.70;;;;;;;;;;5016782;28;20205;-61
2023/10/18 02:04:37;;;;;;;13.07;7.40;;;3.10;99.90;;;;;;5022045;28;20465;-61
2023/10/18 02:07:06;;;;;;;12.90;7.07;;;;;;;;;;5017531;28;20456;-61
2023/10/18 02:09:47;;;;;;;15.00;7.90;;;3.10;99.90;;;;;;5019128;28;20424;-61
2023/10/18 02:12:18;;;;;;;14.23;7.17;;;;;;;;;;5020420;28;20449;-61
2023/10/18 02:14:45;;;;;;;15.60;7.53;;;;;;;;;;5017601;28;21768;-61
2023/10/18 02:17:10;;;;;;;19.13;8.60;;;;;;;;;;5017404;28;20433;-61
2023/10/18 02:19:37;;;;;;;16.60;7.40;;;3.20;99.90;;;;;;5021853;28;20435;-61
2023/10/18 02:22:07;;;;;;;16.37;7.90;;;;;;;;;;5017012;28;20918;-61
2023/10/18 02:24:33;;;;;;;18.63;8.20;;;;;;;;;;5020048;28;20507;-61
2023/10/18 02:27:00;;;;;;;9.90;6.30;;;;;;;;;;5018014;28;20440;-61
2023/10/18 02:29:27;;;;;;;18.27;7.83;;;;;;;;;;5019705;28;20461;-61
2023/10/18 02:31:57;;;;;;;12.33;6.37;;;;;;;;;;5019298;28;20426;-61
2023/10/18 02:34:26;;;;;;;12.80;7.17;;;;;;;;;;5019832;28;20421;-61
2023/10/18 02:36:53;;;;;;;14.37;7.00;;;;;;;;;;5019902;28;20441;-61
2023/10/18 02:39:37;;;;;;;19.80;9.10;;;;;;;;;;5019028;28;20445;-61
2023/10/18 02:42:04;;;;;;;13.00;7.57;;;;;;;;;;5017532;28;20448;-61
2023/10/18 02:44:33;;;;;;;18.03;7.53;;;3.20;99.90;;;;;;5021013;28;20576;-61
2023/10/18 02:47:16;;;;;;;10.73;7.00;;;;;;;;;;5019590;28;20440;-61
2023/10/18 02:49:45;;;;;;;12.80;6.80;;;3.10;99.90;;;;;;5017958;28;20927;-61
2023/10/18 02:52:12;;;;;;;17.00;6.60;;;;;;;;;;5018703;28;20446;-61
2023/10/18 02:54:39;;;;;;;12.53;6.97;;;;;;;;;;5020963;28;20782;-61
2023/10/18 02:57:05;;;;;;;16.03;8.00;;;;;;;;;;5019210;28;20654;-61
2023/10/18 02:59:31;;;;;;;13.73;6.07;;;;;;;;;;5019887;28;20428;-61
2023/10/18 03:02:01;;;;;;;21.20;7.40;;;3.20;99.90;;;;;;5025818;28;20417;-61
2023/10/18 03:04:28;;;;;;;18.40;7.30;;;3.00;99.90;;;;;;5023502;28;20504;-61
2023/10/18 03:06:55;;;;;;;16.17;7.80;;;3.20;99.90;;;;;;5024511;28;20448;-61
2023/10/18 03:09:27;;;;;;;12.57;7.40;;;3.20;99.90;;;;;;5023478;28;20429;-61
2023/10/18 03:11:55;;;;;;;12.67;7.43;;;3.30;99.90;;;;;;5022836;28;20461;-61
2023/10/18 03:14:23;;;;;;;12.80;7.70;;;3.30;99.90;;;;;;5021821;28;20445;-61
2023/10/18 03:16:49;;;;;;;11.10;6.20;;;3.20;99.90;;;;;;5022732;28;20520;-61
2023/10/18 03:19:18;;;;;;;11.63;7.00;;;3.00;99.90;;;;;;5024247;28;20449;-61
2023/10/18 03:21:49;;;;;;;13.43;6.07;;;3.00;99.90;;;;;;5024378;28;20556;-61
2023/10/18 03:24:19;;;;;;;13.33;7.70;;;2.90;99.90;;;;;;5022896;28;20836;-61
2023/10/18 03:26:45;;;;;;;15.17;8.10;;;2.90;99.90;;;;;;5025637;28;20932;-61
2023/10/18 03:29:15;;;;;;;17.60;7.93;;;2.90;99.90;;;;;;5022303;28;20528;-61
2023/10/18 03:31:43;;;;;;;14.63;7.43;;;2.90;99.90;;;;;;5019487;28;20511;-61
2023/10/18 03:34:14;;;;;;;14.30;7.60;;;3.00;99.90;;;;;;5024519;28;20921;-61
2023/10/18 03:36:52;;;;;;;14.37;7.77;;;2.80;99.90;;;;;;5023002;28;20495;-61
2023/10/18 03:39:23;;;;;;;14.50;8.13;;;2.80;99.90;;;;;;5021223;28;21317;-61
2023/10/18 03:41:50;;;;;;;10.67;7.13;;;2.80;99.90;;;;;;5024146;28;20453;-61
2023/10/18 03:44:21;;;;;;;18.83;7.60;;;2.90;99.90;;;;;;5023870;28;20603;-61
2023/10/18 03:46:47;;;;;;;13.70;6.57;;;2.90;99.90;;;;;;5021151;28;20430;-61
2023/10/18 03:51:56;;;;;;;14.60;7.27;;;2.90;99.90;;;;;;5021859;28;20452;-61
2023/10/18 03:54:27;;;;;;;14.60;6.73;;;2.90;99.90;;;;;;5023544;28;20437;-61
2023/10/18 03:56:53;;;;;;;14.80;6.67;;;2.90;99.90;;;;;;5022024;28;21872;-61
2023/10/18 03:59:23;;;;;;;16.20;7.80;;;2.80;99.90;;;;;;5021211;28;20444;-61
2023/10/18 04:04:44;;;;;;;12.20;7.03;;;2.90;99.90;;;;;;5020360;28;20558;-61
2023/10/18 04:07:13;;;;;;;16.07;8.07;;;2.80;99.90;;;;;;5020459;28;20444;-61
2023/10/18 04:12:24;;;;;;;14.17;6.63;;;;;;;;;;5017963;28;20524;-61
2023/10/18 04:14:53;;;;;;;15.90;8.03;;;2.90;99.90;;;;;;5023226;28;20449;-61
2023/10/18 04:20:31;;;;;;;13.60;7.20;;;2.90;99.90;;;;;;5023428;28;20527;-61
2023/10/18 04:22:53;;;;;;;12.87;7.23;;;2.80;99.90;;;;;;5020384;28;20441;-61
2023/10/18 04:25:29;;;;;;;12.77;7.30;;;2.90;99.90;;;;;;5019802;28;20469;-61
2023/10/18 04:27:59;;;;;;;11.63;6.97;;;2.90;99.90;;;;;;5019921;28;20265;-61
2023/10/18 04:30:32;;;;;;;13.80;7.70;;;2.90;99.90;;;;;;5023251;28;20436;-61
2023/10/18 04:33:14;;;;;;;19.23;7.60;;;2.90;99.90;;;;;;5021707;28;20437;-61
2023/10/18 04:35:46;;;;;;;12.33;6.83;;;2.80;99.90;;;;;;5022663;28;20417;-61
2023/10/18 04:38:22;;;;;;;9.73;5.17;;;2.80;99.90;;;;;;5019942;28;20457;-61
2023/10/18 04:43:32;;;;;;;14.43;7.07;;;2.80;99.90;;;;;;5020800;28;20523;-61
2023/10/18 04:45:59;;;;;;;12.73;6.50;;;2.80;99.90;;;;;;5022511;28;20443;-61
2023/10/18 04:51:26;;;;;;;14.43;7.70;;;2.80;99.90;;;;;;5017284;28;20459;-61
2023/10/18 04:53:52;;;;;;;12.90;6.40;;;;;;;;;;5020770;28;20554;-61
2023/10/18 04:56:19;;;;;;;15.47;7.83;;;;;;;;;;5021829;28;20521;-61
2023/10/18 04:58:45;;;;;;;16.60;7.67;;;;;;;;;;5020019;28;20805;-61
2023/10/18 05:01:13;;;;;;;14.00;6.83;;;;;;;;;;5022340;28;21271;-60
2023/10/18 05:03:44;;;;;;;16.40;7.40;;;;;;;;;;5020730;28;20480;-61
2023/10/18 05:06:11;;;;;;;14.60;7.73;;;2.80;99.90;;;;;;5018627;28;20540;-61
2023/10/18 05:08:37;;;;;;;20.17;9.27;;;;;;;;;;5021133;28;20433;-61
2023/10/18 05:13:48;;;;;;;21.43;9.60;;;;;;;;;;5020081;28;20500;-61
2023/10/18 05:16:16;;;;;;;16.20;8.23;;;;;;;;;;5018051;28;20436;-61
2023/10/18 05:18:44;;;;;;;18.30;8.33;;;2.90;99.90;;;;;;5020714;28;20436;-61
2023/10/18 05:21:10;;;;;;;14.33;8.00;;;2.70;99.90;;;;;;5022722;28;20434;-61
2023/10/18 05:23:36;;;;;;;17.03;9.40;;;;;;;;;;5017614;28;20664;-61
2023/10/18 05:28:52;;;;;;;16.90;8.10;;;2.70;99.90;;;;;;5014800;28;20465;-61
2023/10/18 05:34:18;;;;;;;13.67;7.73;;;2.70;99.90;;;;;;5015130;28;20528;-61
2023/10/18 05:42:00;;;;;;;13.00;7.23;;;;;;;;;;5014349;28;20453;-61
2023/10/18 05:44:28;;;;;;;14.70;7.80;;;3.00;99.90;;;;;;5014143;28;20466;-61
2023/10/18 05:46:54;;;;;;;31.97;11.03;;;;;;;;;;5015530;28;20638;-61
2023/10/18 05:49:23;;;;;;;16.03;9.00;;;;;;;;;;5012926;28;20440;-61
2023/10/18 05:51:53;;;;;;;24.43;9.73;;;;;;;;;;5014008;28;20426;-61
2023/10/18 05:54:22;;;;;;;22.53;9.73;;;3.30;99.90;;;;;;5014269;28;20797;-61
2023/10/18 05:56:53;;;;;;;19.73;10.23;;;;;;;;;;5016049;28;20472;-62
2023/10/18 06:01:48;;;;;;;19.57;9.40;;;;;;;;;;5016422;28;20452;-61
2023/10/18 06:04:23;;;;;;;24.30;10.30;;;;;;;;;;5016856;28;21437;-61
2023/10/18 06:06:49;;;;;;;18.20;9.57;;;;;;;;;;5015695;28;20562;-61
2023/10/18 06:09:26;;;;;;;12.53;7.50;;;;;;;;;;5017077;28;20516;-61
2023/10/18 06:11:53;;;;;;;11.87;7.20;;;3.60;99.90;;;;;;5019814;28;20421;-61
2023/10/18 06:14:18;;;;;;;13.63;7.93;;;3.50;99.90;;;;;;5017517;28;20483;-61
2023/10/18 06:16:51;;;;;;;17.30;9.00;;;3.50;99.90;;;;;;5018595;28;20974;-62
2023/10/18 06:19:27;;;;;;;15.23;8.00;;;3.50;99.90;;;;;;5017431;28;20193;-62
2023/10/18 06:21:59;;;;;;;15.80;9.17;;;3.50;99.90;;;;;;5019902;28;20433;-62
2023/10/18 06:24:26;;;;;;;19.40;9.07;;;3.50;99.90;;;;;;5018716;28;20500;-62
2023/10/18 06:26:52;;;;;;;15.70;8.20;;;3.60;99.90;;;;;;5017401;28;20436;-62
2023/10/18 06:29:24;;;;;;;18.50;9.40;;;3.70;99.90;;;;;;5018282;28;20445;-62
2023/10/18 06:31:50;;;;;;;20.30;11.30;;;3.70;99.90;;;;;;5018235;28;20520;-62
2023/10/18 06:34:22;;;;;;;24.23;13.13;;;3.80;99.90;;;;;;5017822;28;20940;-62
2023/10/18 06:36:49;;;;;;;31.17;14.37;;;4.00;99.90;;;;;;5018168;28;20772;-62
2023/10/18 06:39:28;;;;;;;19.60;10.00;;;4.00;99.90;;;;;;5018413;28;20473;-62
2023/10/18 06:41:57;;;;;;;19.10;10.00;;;4.00;99.90;;;;;;5017765;28;20433;-62
2023/10/18 06:44:30;;;;;;;17.63;10.20;;;4.00;99.90;;;;;;5017500;28;20496;-62
2023/10/18 06:46:57;;;;;;;18.43;8.27;;;4.00;99.90;;;;;;5018932;28;20766;-62
2023/10/18 06:49:25;;;;;;;21.33;8.67;;;4.00;99.90;;;;;;5017162;28;20445;-62
2023/10/18 06:51:51;;;;;;;20.70;9.90;;;4.20;99.90;;;;;;5020628;28;20452;-61
2023/10/18 06:54:32;;;;;;;16.03;8.37;;;4.20;99.90;;;;;;5016935;28;21278;-61
2023/10/18 06:57:09;;;;;;;18.13;8.73;;;4.30;99.90;;;;;;5020093;28;20202;-62
2023/10/18 06:59:34;;;;;;;15.57;8.80;;;4.40;99.90;;;;;;5019305;28;21415;-62
2023/10/18 07:02:00;;;;;;;18.17;9.60;;;4.50;99.90;;;;;;5016588;28;20449;-62
2023/10/18 07:04:37;;;;;;;19.83;9.73;;;4.60;99.90;;;;;;5016790;28;21070;-62
2023/10/18 07:07:13;;;;;;;22.43;9.03;;;4.70;99.90;;;;;;5018160;28;20209;-62
2023/10/18 07:09:42;;;;;;;23.77;10.27;;;4.80;99.90;;;;;;5017037;28;20425;-62
2023/10/18 07:12:11;;;;;;;15.13;8.53;;;4.80;99.90;;;;;;5017632;28;20441;-62
2023/10/18 07:14:41;;;;;;;30.20;10.90;;;4.90;99.90;;;;;;5019245;28;20437;-62
2023/10/18 07:17:09;;;;;;;29.13;10.30;;;5.00;99.90;;;;;;5018897;28;20434;-62
2023/10/18 07:19:48;;;;;;;23.30;9.90;;;5.10;99.90;;;;;;5017426;28;20442;-62
2023/10/18 07:22:21;;;;;;;21.90;11.67;;;5.30;99.90;;;;;;5018197;28;20444;-62
2023/10/18 07:24:54;;;;;;;28.83;12.50;;;5.40;99.90;;;;;;5017106;28;20551;-62
2023/10/18 07:27:25;;;;;;;27.00;11.80;;;5.40;99.90;;;;;;5018081;28;20426;-62
2023/10/18 07:29:51;;;;;;;23.00;11.40;;;5.40;99.90;;;;;;5018239;28;21318;-62
2023/10/18 07:32:20;;;;;;;23.50;10.80;;;5.50;99.90;;;;;;5015531;28;20447;-62
2023/10/18 07:34:48;;;;;;;23.90;12.77;;;5.60;99.90;;;;;;5017111;28;20663;-62
2023/10/18 07:37:17;;;;;;;29.53;12.20;;;5.80;99.90;;;;;;5018189;28;21301;-62
2023/10/18 07:39:56;;;;;;;27.77;10.33;;;5.90;99.90;;;;;;5014613;28;20444;-62
2023/10/18 07:42:26;;;;;;;18.50;9.47;;;6.10;99.90;;;;;;5019508;28;20972;-62
2023/10/18 07:44:53;;;;;;;21.30;10.77;;;6.40;99.90;;;;;;5019314;28;20472;-62
2023/10/18 07:47:20;;;;;;;21.27;8.57;;;6.60;99.90;;;;;;5020659;28;20452;-62
2023/10/18 07:49:46;;;;;;;20.10;9.70;;;6.70;99.90;;;;;;5022130;28;20443;-62
2023/10/18 07:52:13;;;;;;;24.00;9.33;;;7.00;99.90;;;;;;5018499;28;20441;-65
2023/10/18 07:54:39;;;;;;;20.13;11.00;;;7.10;99.90;;;;;;5021700;28;20532;-61
2023/10/18 07:57:11;;;;;;;21.80;11.27;;;7.10;99.90;;;;;;5020805;28;20471;-62
2023/10/18 07:59:45;;;;;;;22.47;9.57;;;7.20;99.90;;;;;;5021978;28;20432;-62
2023/10/18 08:04:43;;;;;;;13.40;7.97;;;7.60;99.90;;;;;;5020228;28;20470;-62
2023/10/18 08:07:15;;;;;;;16.93;8.87;;;7.90;99.90;;;;;;5021778;28;20451;-62
2023/10/18 08:09:43;;;;;;;15.40;8.67;;;8.10;99.90;;;;;;5020093;28;20929;-62
2023/10/18 08:12:20;;;;;;;24.07;8.63;;;8.40;99.90;;;;;;5020072;28;20433;-61
2023/10/18 08:14:50;;;;;;;18.07;7.70;;;;;;;;;;5021764;28;20948;-62
2023/10/18 08:17:42;;;;;;;10.50;7.07;;;8.30;99.90;;;;;;5018017;28;20439;-61
2023/10/18 08:22:47;;;;;;;15.27;8.07;;;8.70;99.90;;;;;;5019815;28;20440;-62
2023/10/18 08:25:31;;;;;;;14.73;6.83;;;;;;;;;;5020723;28;20929;-62
2023/10/18 08:27:57;;;;;;;16.90;7.10;;;9.50;99.90;;;;;;5020262;28;20472;-62
2023/10/18 08:32:51;;;;;;;14.33;6.20;;;;;;;;;;5019412;28;20448;-62
2023/10/18 08:35:20;;;;;;;8.90;6.33;;;10.20;99.90;;;;;;5018967;28;21270;-62
2023/10/18 08:37:46;;;;;;;12.53;7.17;;;10.20;99.90;;;;;;5019606;28;20886;-62
2023/10/18 08:41:05;;;;;;;9.23;4.97;;;10.60;99.90;;;;;;5020837;28;20433;-62
2023/10/18 08:43:15;;;;;;;6.77;4.60;;;10.60;99.90;;;;;;5013576;28;20441;-62
2023/10/18 08:45:46;;;;;;;9.80;4.63;;;10.60;99.90;;;;;;5026181;28;20472;-62
2023/10/18 08:48:28;;;;;;;9.40;4.90;;;10.70;99.90;;;;;;5024310;28;20980;-62
2023/10/18 08:50:55;;;;;;;6.73;4.40;;;10.70;99.90;;;;;;5015028;28;20504;-62
2023/10/18 08:53:25;;;;;;;8.47;5.00;;;10.70;99.90;;;;;;5023411;28;20475;-62
2023/10/18 08:55:52;;;;;;;10.23;6.17;;;11.20;99.90;;;;;;5029810;28;20459;-62
2023/10/18 08:58:19;;;;;;;10.30;6.00;;;10.50;99.90;;;;;;5024333;28;20952;-62
2023/10/18 09:03:16;;;;;;;15.40;5.83;;;10.30;99.90;;;;;;5022843;28;20428;-62
2023/10/18 09:05:42;;;;;;;13.20;6.23;;;10.30;99.90;;;;;;5012650;28;20477;-62
2023/10/18 09:08:14;;;;;;;12.03;5.50;;;10.30;99.90;;;;;;5023318;28;20556;-62
2023/10/18 09:10:48;;;;;;;19.70;6.30;;;10.30;99.90;;;;;;5019390;28;20185;-62
2023/10/18 09:16:01;;;;;;;13.50;6.43;;;10.20;99.90;;;;;;5014974;28;20937;-62
2023/10/18 09:18:30;;;;;;;14.70;6.77;;;10.20;99.90;;;;;;5010254;28;20437;-65
2023/10/18 09:21:36;;;;;;;13.37;6.83;;;10.30;99.90;;;;;;5013571;28;20521;-64
2023/10/18 09:23:50;;;;;;;17.17;9.37;;;10.30;99.90;;;;;;5009448;28;20474;-62
2023/10/18 09:26:26;;;;;;;14.70;7.23;;;10.40;99.90;;;;;;5010703;28;20429;-62
2023/10/18 09:28:54;;;;;;;17.77;7.63;;;10.40;99.90;;;;;;5006278;28;20183;-62
2023/10/18 09:31:20;;;;;;;13.30;6.93;;;10.50;99.90;;;;;;5011102;28;20482;-62
2023/10/18 09:33:49;;;;;;;17.70;7.50;;;10.70;99.90;;;;;;5005952;28;20449;-62
2023/10/18 09:36:19;;;;;;;13.77;7.30;;;11.50;99.90;;;;;;5005396;28;20247;-62
2023/10/18 09:38:47;;;;;;;11.30;6.47;;;11.70;99.90;;;;;;5008509;28;20803;-62
2023/10/18 09:41:12;;;;;;;12.03;6.00;;;11.40;99.90;;;;;;5010105;28;20468;-62
2023/10/18 09:43:38;;;;;;;11.37;6.23;;;11.30;99.90;;;;;;5019632;28;20465;-63
2023/10/18 09:46:05;;;;;;;12.60;6.87;;;11.30;99.90;;;;;;5026169;28;20187;-62
2023/10/18 09:48:32;;;;;;;10.43;5.13;;;11.30;99.90;;;;;;5016454;28;20267;-62
2023/10/18 09:51:14;;;;;;;13.73;4.97;;;11.50;99.90;;;;;;5026322;28;20820;-63
2023/10/18 09:53:43;;;;;;;8.33;4.40;;;11.60;99.90;;;;;;5016818;28;20461;-62
2023/10/18 09:56:13;;;;;;;13.17;4.80;;;11.70;99.90;;;;;;5019423;28;21153;-63
2023/10/18 09:58:44;;;;;;;14.43;5.67;;;12.00;99.90;;;;;;5016518;28;20448;-62
2023/10/18 10:01:13;;;;;;;11.27;6.77;;;12.00;99.90;;;;;;5018110;28;20429;-63
2023/10/18 10:03:51;;;;;;;8.77;4.87;;;12.20;99.90;;;;;;5022442;28;20432;-63
2023/10/18 10:06:22;;;;;;;13.20;6.30;;;12.40;99.90;;;;;;5028968;28;20436;-63
2023/10/18 10:09:11;;;;;;;7.47;4.60;;;12.70;99.90;;;;;;5024362;28;20960;-63
2023/10/18 10:11:47;;;;;;;10.00;5.00;;;12.80;99.90;;;;;;5027092;28;20415;-62
2023/10/18 10:14:18;;;;;;;12.30;5.27;;;13.00;99.90;;;;;;5024623;28;20447;-63
2023/10/18 10:17:07;;;;;;;9.80;5.07;;;12.90;99.90;;;;;;5026555;28;20792;-63
2023/10/18 10:19:43;;;;;;;7.53;4.30;;;13.20;99.90;;;;;;5024222;28;20428;-62
2023/10/18 10:22:11;;;;;;;7.87;4.97;;;13.10;99.90;;;;;;5028128;28;20420;-62
2023/10/18 10:24:45;;;;;;;6.53;2.97;;;13.40;98.90;;;;;;5025587;28;20497;-63
2023/10/18 10:30:19;;;;;;;17.33;3.87;;;13.40;99.20;;;;;;5027324;28;20449;-62
2023/10/18 10:32:46;;;;;;;6.30;3.87;;;13.60;99.00;;;;;;5021769;28;20421;-63
2023/10/18 10:35:15;;;;;;;5.83;2.50;;;13.60;99.20;;;;;;5019310;28;20424;-63
2023/10/18 10:38:09;;;;;;;3.00;1.80;;;13.50;96.10;;;;;;5022082;28;20959;-62
2023/10/18 10:40:39;;;;;;;5.63;1.70;;;13.50;96.10;;;;;;5014929;28;20914;-63
2023/10/18 10:43:08;;;;;;;2.80;1.77;;;13.40;96.20;;;;;;5023888;28;20460;-63
2023/10/18 10:45:38;;;;;;;3.87;1.80;;;13.40;96.60;;;;;;5027784;28;20504;-63
2023/10/18 10:48:15;;;;;;;7.33;2.77;;;13.50;96.70;;;;;;5025514;28;20520;-63
2023/10/18 10:50:51;;;;;;;3.70;1.67;;;13.80;96.80;;;;;;5017493;28;20917;-63
2023/10/18 10:53:44;;;;;;;3.30;1.77;;;13.90;96.50;;;;;;5024747;28;20420;-63
2023/10/18 10:56:19;;;;;;;2.50;1.70;;;14.00;96.60;;;;;;5015640;28;20444;-63
2023/10/18 11:01:57;;;;;;;4.70;2.13;;;14.00;96.50;;;;;;5029285;28;20456;-63
2023/10/18 11:04:28;;;;;;;4.20;1.87;;;14.00;96.70;;;;;;5025129;28;20532;-63
2023/10/18 11:07:00;;;;;;;4.50;2.57;;;13.90;96.70;;;;;;5021868;28;20417;-63
2023/10/18 11:09:33;;;;;;;3.27;1.83;;;13.90;96.90;;;;;;5024521;28;20444;-63
2023/10/18 11:12:04;;;;;;;3.77;2.23;;;13.90;97.30;;;;;;5028089;28;20483;-63
2023/10/18 11:14:31;;;;;;;3.93;2.10;;;14.00;96.70;;;;;;5025013;28;20528;-62
2023/10/18 11:20:03;;;;;;;5.87;1.70;;;14.00;96.90;;;;;;4994257;28;20466;-62
2023/10/18 11:22:31;;;;;;;5.37;2.33;;;14.10;97.20;;;;;;5026195;28;20517;-62
2023/10/18 11:24:59;;;;;;;9.60;3.00;;;14.20;96.40;;;;;;5029517;28;20484;-62
2023/10/18 11:27:36;;;;;;;4.93;2.47;;;14.10;96.70;;;;;;5030465;28;20413;-62
2023/10/18 11:30:15;;;;;;;6.30;3.90;;;14.00;96.50;;;;;;5025984;28;20941;-62
2023/10/18 11:32:48;;;;;;;4.50;2.70;;;14.10;96.80;;;;;;5022518;28;20833;-63
2023/10/18 11:35:18;;;;;;;7.43;3.13;;;14.10;96.80;;;;;;5024661;28;20436;-62
2023/10/18 11:37:45;;;;;;;6.50;2.57;;;14.20;95.90;;;;;;5029479;28;20437;-62
2023/10/18 11:40:21;;;;;;;10.60;4.13;;;14.30;96.10;;;;;;5028754;28;20896;-62
2023/10/18 11:43:09;;;;;;;5.50;2.90;;;14.40;95.60;;;;;;5026810;28;20440;-62
2023/10/18 11:45:36;;;;;;;6.53;3.20;;;14.30;95.60;;;;;;5032146;28;20460;-62
2023/10/18 11:48:06;;;;;;;17.40;3.03;;;14.20;95.70;;;;;;5029729;28;20444;-62
2023/10/18 11:50:42;;;;;;;7.40;3.23;;;14.40;95.10;;;;;;5032280;28;20455;-62
2023/10/18 11:53:12;;;;;;;6.07;2.70;;;14.30;95.50;;;;;;5029771;28;20425;-62
2023/10/18 11:55:58;;;;;;;6.13;3.63;;;14.20;95.40;;;;;;5029127;28;20463;-62
2023/10/18 11:58:26;;;;;;;8.97;3.27;;;14.40;96.10;;;;;;5024685;28;20448;-63
2023/10/18 12:00:59;;;;;;;5.90;3.10;;;14.50;95.60;;;;;;5036797;28;20417;-62
2023/10/18 12:03:27;;;;;;;5.00;2.40;;;14.50;95.70;;;;;;5024783;28;20975;-63
2023/10/18 12:05:55;;;;;;;6.87;2.30;;;14.30;95.40;;;;;;5032609;28;20934;-63
2023/10/18 12:08:23;;;;;;;4.07;2.43;;;14.30;95.10;;;;;;5025000;28;20430;-62
2023/10/18 12:10:49;;;;;;;6.93;3.17;;;14.20;95.40;;;;;;5032148;28;20417;-62
2023/10/18 12:13:17;;;;;;;8.03;2.80;;;14.40;95.90;;;;;;5025865;28;20426;-63
2023/10/18 12:15:43;;;;;;;9.80;2.80;;;14.40;95.80;;;;;;5028538;28;20421;-63
2023/10/18 12:18:14;;;;;;;6.63;3.30;;;14.40;95.80;;;;;;5044869;22;20666;-62
2023/10/18 12:20:43;;;;;;;5.03;3.30;;;14.20;96.20;;;;;;5032342;28;20409;-62
2023/10/18 12:23:10;;;;;;;9.30;4.40;;;14.20;96.40;;;;;;5028496;28;20444;-63
2023/10/18 12:25:42;;;;;;;6.63;3.80;;;14.10;96.60;;;;;;5031381;28;20472;-62
2023/10/18 12:28:19;;;;;;;6.73;4.40;;;14.10;96.60;;;;;;5029173;28;20948;-62
2023/10/18 12:30:51;;;;;;;7.80;4.17;;;14.10;97.20;;;;;;5032395;28;20441;-62
2023/10/18 12:33:25;;;;;;;6.10;4.30;;;13.90;96.80;;;;;;5023031;28;20910;-62
2023/10/18 12:35:51;;;;;;;13.67;4.20;;;13.70;96.90;;;;;;5032069;28;20920;-62
2023/10/18 12:38:32;;;;;;;5.37;3.40;;;13.80;97.40;;;;;;5025744;28;20433;-62
2023/10/18 12:40:59;;;;;;;11.53;4.00;;;13.80;97.50;;;;;;5029147;28;20461;-62
2023/10/18 12:43:25;;;;;;;7.87;3.23;;;13.90;97.60;;;;;;5025725;28;20488;-62
2023/10/18 12:45:51;;;;;;;8.60;3.63;;;14.00;97.60;;;;;;5021759;28;20456;-62
2023/10/18 12:48:24;;;;;;;5.67;3.33;;;14.00;97.20;;;;;;5024995;28;20451;-62
2023/10/18 12:50:54;;;;;;;7.40;3.90;;;14.00;96.90;;;;;;5022182;28;20220;-62
2023/10/18 12:56:16;;;;;;;5.87;3.10;;;14.00;97.60;;;;;;5029851;28;20437;-62
2023/10/18 12:58:54;;;;;;;4.70;2.80;;;14.00;97.40;;;;;;5016305;28;20487;-62
2023/10/18 13:01:22;;;;;;;8.23;2.90;;;14.10;97.80;;;;;;5020333;28;20508;-62
2023/10/18 13:03:59;;;;;;;8.23;3.47;;;14.10;97.40;;;;;;5019906;28;21410;-62
2023/10/18 13:06:31;;;;;;;6.13;2.97;;;14.00;97.70;;;;;;5021786;28;20437;-62
2023/10/18 13:14:44;;;;;;;6.30;2.57;;;13.90;96.80;;;;;;5017363;28;20495;-62
2023/10/18 13:17:05;;;;;;;4.63;2.00;;;13.80;96.90;;;;;;5019568;28;20945;-62
2023/10/18 13:19:31;;;;;;;4.00;2.70;;;13.80;97.70;;;;;;5018110;28;20503;-62
2023/10/18 13:21:57;;;;;;;3.50;2.20;;;13.70;97.60;;;;;;5020171;28;20977;-62
2023/10/18 13:26:52;;;;;;;3.57;1.90;;;13.60;98.70;;;;;;5019297;28;20191;-62
2023/10/18 13:31:49;;;;;;;6.60;2.40;;;13.40;99.20;;;;;;5020378;28;20457;-62
2023/10/18 13:34:18;;;;;;;4.13;2.07;;;13.40;99.40;;;;;;5018059;28;20483;-62
2023/10/18 13:36:54;;;;;;;3.23;1.90;;;13.50;99.60;;;;;;5020494;28;20421;-62
2023/10/18 13:39:23;;;;;;;5.60;2.03;;;13.40;99.40;;;;;;5018312;28;20772;-62
2023/10/18 13:41:49;;;;;;;6.27;2.30;;;13.40;99.60;;;;;;5020828;28;20433;-62
2023/10/18 13:44:21;;;;;;;4.83;2.30;;;13.40;99.50;;;;;;5017678;28;20457;-62
2023/10/18 13:46:57;;;;;;;4.40;2.30;;;13.40;99.50;;;;;;5019014;28;21038;-62
2023/10/18 13:49:23;;;;;;;8.80;2.83;;;13.40;99.70;;;;;;5019717;28;20475;-62
2023/10/18 13:51:50;;;;;;;5.63;2.70;;;13.40;99.70;;;;;;5021832;28;20425;-62
2023/10/18 13:54:16;;;;;;;6.17;2.83;;;13.30;99.80;;;;;;5016122;28;20927;-62
2023/10/18 13:56:43;;;;;;;11.47;3.30;;;13.30;99.90;;;;;;5019251;28;20474;-62
2023/10/18 13:59:09;;;;;;;6.57;2.67;;;13.10;99.90;;;;;;5019503;28;20356;-62
2023/10/18 14:01:38;;;;;;;6.43;2.57;;;13.10;99.90;;;;;;5019124;28;20437;-61
2023/10/18 14:04:05;;;;;;;7.87;3.07;;;13.00;99.90;;;;;;5019021;28;20465;-62
2023/10/18 14:06:34;;;;;;;10.10;3.60;;;12.80;99.90;;;;;;5018474;28;20433;-62
2023/10/18 14:09:04;;;;;;;6.00;3.50;;;12.70;99.90;;;;;;5018392;28;20445;-62
2023/10/18 14:11:31;;;;;;;9.30;3.93;;;12.50;99.90;;;;;;5020984;28;20433;-62
2023/10/18 14:13:58;;;;;;;7.43;3.93;;;12.40;99.90;;;;;;5019455;28;20433;-62
2023/10/18 14:16:24;;;;;;;8.70;4.40;;;12.40;99.90;;;;;;5021710;28;20428;-62
2023/10/18 14:18:51;;;;;;;14.90;4.30;;;12.30;99.90;;;;;;5019394;28;20449;-62
2023/10/18 14:21:19;;;;;;;9.60;4.40;;;12.20;99.90;;;;;;5018589;28;20221;-63
2023/10/18 14:23:47;;;;;;;8.10;4.50;;;12.20;99.90;;;;;;5016557;28;20457;-63
2023/10/18 14:26:17;;;;;;;11.80;5.27;;;12.00;99.90;;;;;;5018718;28;20429;-64